Time;durP1;ratioP1;P1;durP2;ratioP2;P2;SDS_P1;SDS_P2;PMS_P1;PMS_P2;Temp;Humidity;BMP_temperature;BMP_pressure;BME280_temperature;BME280_humidity;BME280_pressure;Samples;Min_cycle;Max_cycle;Signal;HPM_P1;HPM_P2
2022/03/04 00:01:05;;;;;;;27.23;15.55;;;;;;;2.25;72.97;101998.84;5072213;28;20504;-59
2022/03/04 00:03:33;;;;;;;29.33;14.15;;;;;;;2.29;73.02;101993.63;5072389;28;20044;-59
2022/03/04 00:06:02;;;;;;;26.85;14.55;;;;;;;2.20;73.36;101997.19;5071478;28;20106;-59
2022/03/04 00:08:30;;;;;;;29.50;15.63;;;;;;;2.17;73.33;101996.38;5072239;28;20041;-53
2022/03/04 00:10:59;;;;;;;27.10;14.95;;;;;;;2.14;73.65;101999.84;5072139;28;20056;-59
2022/03/04 00:13:33;;;;;;;27.65;14.13;;;;;;;2.13;73.44;102005.06;5072258;28;20078;-59
2022/03/04 00:16:03;;;;;;;27.15;14.63;;;;;;;2.05;74.02;102001.69;5072270;28;20033;-61
2022/03/04 00:18:31;;;;;;;32.15;14.57;;;;;;;2.02;74.68;102005.19;5072127;28;20580;-59
2022/03/04 00:21:02;;;;;;;27.08;14.70;;;;;;;1.99;75.04;102008.66;5072217;28;20045;-59
2022/03/04 00:23:30;;;;;;;28.85;15.48;;;;;;;1.96;75.57;102013.88;5072144;28;20127;-59
2022/03/04 00:25:59;;;;;;;27.23;14.20;;;;;;;1.98;75.99;102016.47;5072246;28;20083;-59
2022/03/04 00:28:27;;;;;;;29.20;15.00;;;;;;;1.98;76.18;102019.91;5072242;28;20495;-59
2022/03/04 00:30:56;;;;;;;30.00;15.60;;;;;;;1.86;76.65;102007.91;5072306;28;20057;-59
2022/03/04 00:33:25;;;;;;;27.33;14.77;;;;;;;1.89;76.53;102012.22;5072294;28;20044;-59
2022/03/04 00:35:55;;;;;;;31.55;16.65;;;;;;;1.83;76.60;102010.56;5072136;28;20033;-59
2022/03/04 00:38:23;;;;;;;28.92;14.68;;;;;;;1.84;76.60;102020.06;5072125;28;20048;-59
2022/03/04 00:40:51;;;;;;;28.80;14.38;;;;;;;1.88;76.23;102022.63;5072013;28;20060;-60
2022/03/04 00:43:19;;;;;;;26.58;13.80;;;;;;;1.88;76.75;102020.88;5072432;28;20059;-59
2022/03/04 00:45:48;;;;;;;28.65;14.43;;;;;;;1.90;76.67;102010.50;5071618;28;20127;-59
2022/03/04 00:48:16;;;;;;;29.33;14.93;;;;;;;1.82;76.87;102024.41;5071461;28;20048;-60
2022/03/04 00:50:45;;;;;;;26.70;15.02;;;;;;;1.75;77.56;102024.50;5071831;28;20075;-59
2022/03/04 00:53:13;;;;;;;31.83;14.70;;;;;;;1.79;77.67;102021.00;5071869;28;20045;-59
2022/03/04 00:55:41;;;;;;;27.70;14.68;;;;;;;1.74;78.14;102020.16;5071992;28;20060;-59
2022/03/04 00:58:10;;;;;;;30.05;14.50;;;;;;;1.67;78.17;102011.59;5071827;28;20067;-59
2022/03/04 01:00:38;;;;;;;29.95;15.55;;;;;;;1.67;78.75;102022.81;5071640;28;20486;-60
2022/03/04 01:03:06;;;;;;;27.75;14.88;;;;;;;1.62;79.23;102021.13;5071644;28;20131;-59
2022/03/04 01:05:35;;;;;;;28.95;14.45;;;;;;;1.60;79.24;102022.91;5071592;28;20147;-60
2022/03/04 01:08:05;;;;;;;29.40;13.50;;;;;;;1.56;79.63;102021.19;5071389;28;20048;-60
2022/03/04 01:10:33;;;;;;;28.08;13.07;;;;;;;1.55;79.32;102019.47;5071639;28;20051;-59
2022/03/04 01:13:01;;;;;;;27.33;12.80;;;;;;;1.53;79.32;102022.09;5071131;28;20053;-59
2022/03/04 01:15:29;;;;;;;27.23;12.98;;;;;;;1.56;79.62;102021.19;5071235;28;20044;-59
2022/03/04 01:17:57;;;;;;;27.20;14.30;;;;;;;1.49;79.63;102025.56;5071594;28;20051;-58
2022/03/04 01:20:26;;;;;;;26.30;12.77;;;;;;;1.44;80.61;102028.19;5071680;28;20051;-60
2022/03/04 01:22:54;;;;;;;29.02;14.52;;;;;;;1.38;80.69;102028.25;5071704;28;20048;-58
2022/03/04 01:25:23;;;;;;;27.05;14.43;;;;;;;1.41;80.87;102029.97;5071493;28;20048;-59
2022/03/04 01:27:51;;;;;;;27.55;14.00;;;;;;;1.40;80.58;102031.69;5071709;28;20052;-61
2022/03/04 01:30:20;;;;;;;26.00;14.05;;;;;;;1.36;80.47;102027.38;5073627;28;20040;-60
2022/03/04 01:32:48;;;;;;;30.55;14.80;;;;;;;1.40;80.54;102026.50;5075161;28;20044;-53
2022/03/04 01:35:16;;;;;;;25.70;13.35;;;;;;;1.40;80.33;102020.47;5075040;28;20053;-60
2022/03/04 01:37:45;;;;;;;28.20;14.35;;;;;;;1.33;80.37;102019.66;5075262;28;20093;-60
2022/03/04 01:40:13;;;;;;;28.40;14.30;;;;;;;1.25;80.78;102011.91;5075053;28;20124;-53
2022/03/04 01:42:43;;;;;;;29.38;14.60;;;;;;;1.25;80.63;102011.06;5075132;28;20036;-55
2022/03/04 01:45:12;;;;;;;27.35;13.77;;;;;;;1.20;80.84;102007.66;5074040;28;20135;-52
2022/03/04 01:47:42;;;;;;;28.92;15.27;;;;;;;1.12;81.40;102013.75;5070612;28;20044;-60
2022/03/04 01:50:11;;;;;;;27.05;15.10;;;;;;;1.10;80.97;102006.84;5072991;28;20040;-51
2022/03/04 01:52:40;;;;;;;28.17;15.45;;;;;;;1.07;80.98;102007.75;5074669;28;20079;-53
2022/03/04 01:55:09;;;;;;;28.70;15.10;;;;;;;1.10;81.35;102012.88;5074696;28;20036;-53
2022/03/04 01:57:38;;;;;;;29.92;14.23;;;;;;;1.05;81.20;102000.84;5074692;28;20044;-54
2022/03/04 02:00:11;;;;;;;30.67;14.68;;;;;;;1.02;81.28;102004.31;5074714;28;20053;-52
2022/03/04 02:02:39;;;;;;;29.90;14.30;;;;;;;1.00;81.80;102006.91;5074607;28;20372;-53
2022/03/04 02:05:12;;;;;;;28.67;14.60;;;;;;;0.98;81.61;102000.03;5074331;28;20036;-53
2022/03/04 02:07:40;;;;;;;28.85;13.55;;;;;;;1.00;81.76;102003.47;5074487;28;20150;-59
2022/03/04 02:10:09;;;;;;;26.63;13.63;;;;;;;0.95;81.40;102000.91;5074610;28;20059;-59
2022/03/04 02:12:38;;;;;;;29.67;14.48;;;;;;;0.91;81.51;102000.94;5074636;28;20059;-59
2022/03/04 02:15:09;;;;;;;26.73;12.90;;;;;;;0.94;81.94;102001.78;5074629;28;20041;-59
2022/03/04 02:17:37;;;;;;;26.77;13.38;;;;;;;0.83;82.61;102006.16;5074289;28;20124;-59
2022/03/04 02:20:07;;;;;;;27.50;13.93;;;;;;;0.89;82.26;102011.31;5074513;28;20049;-59
2022/03/04 02:22:37;;;;;;;26.55;13.13;;;;;;;0.82;82.69;102000.13;5073935;28;20057;-59
2022/03/04 02:25:06;;;;;;;30.33;14.43;;;;;;;0.80;82.76;102003.59;5074132;28;20057;-59
2022/03/04 02:27:34;;;;;;;26.73;12.23;;;;;;;0.78;83.26;102010.53;5073913;28;20040;-59
2022/03/04 02:30:04;;;;;;;26.45;13.05;;;;;;;0.73;83.05;102015.72;5073907;28;20067;-52
2022/03/04 02:32:32;;;;;;;27.90;13.57;;;;;;;0.63;83.65;102007.13;5074207;28;20056;-53
2022/03/04 02:35:01;;;;;;;32.50;15.63;;;;;;;0.59;84.08;102005.44;5073980;28;20044;-59
2022/03/04 02:37:29;;;;;;;28.90;14.85;;;;;;;0.58;84.37;102001.13;5074100;28;20037;-59
2022/03/04 02:39:59;;;;;;;29.63;14.93;;;;;;;0.60;84.30;101998.50;5073772;28;20052;-59
2022/03/04 02:42:27;;;;;;;29.10;15.07;;;;;;;0.60;84.25;101995.94;5072573;28;20055;-59
2022/03/04 02:44:55;;;;;;;30.30;16.65;;;;;;;0.59;84.93;101999.41;5073620;28;20052;-52
2022/03/04 02:47:23;;;;;;;27.17;14.23;;;;;;;0.60;85.16;101995.94;5073610;28;20423;-52
2022/03/04 02:49:51;;;;;;;29.67;14.95;;;;;;;0.58;84.89;101998.53;5072203;28;20054;-55
2022/03/04 02:52:19;;;;;;;35.78;15.73;;;;;;;0.59;85.04;101999.41;5072329;28;20056;-53
2022/03/04 02:54:48;;;;;;;29.30;13.68;;;;;;;0.58;85.41;102008.03;5073655;28;20071;-52
2022/03/04 02:57:17;;;;;;;29.85;13.82;;;;;;;0.56;85.24;101999.41;5073244;28;20059;-50
2022/03/04 02:59:45;;;;;;;28.33;13.50;;;;;;;0.59;85.31;102004.59;5072803;28;20542;-52
2022/03/04 03:02:13;;;;;;;26.90;14.38;;;;;;;0.54;85.68;102001.16;5072971;28;20119;-51
2022/03/04 03:04:42;;;;;;;26.00;12.80;;;;;;;0.50;85.73;101998.59;5071864;28;20044;-53
2022/03/04 03:07:10;;;;;;;28.65;13.25;;;;;;;0.41;86.61;101997.75;5073164;28;20041;-51
2022/03/04 03:09:38;;;;;;;28.25;14.15;;;;;;;0.42;86.89;102004.66;5073200;28;20106;-54
2022/03/04 03:12:07;;;;;;;25.23;13.25;;;;;;;0.43;86.79;102008.97;5073228;28;20044;-54
2022/03/04 03:14:36;;;;;;;26.92;12.45;;;;;;;0.44;86.82;102008.09;5073051;28;20415;-54
2022/03/04 03:17:05;;;;;;;27.13;13.85;;;;;;;0.42;87.04;102010.66;5072916;28;20514;-52
2022/03/04 03:19:33;;;;;;;29.33;13.30;;;;;;;0.42;87.16;102015.00;5073002;28;20503;-53
2022/03/04 03:22:01;;;;;;;27.50;13.73;;;;;;;0.42;87.22;102013.25;5072820;28;20048;-52
2022/03/04 03:24:30;;;;;;;37.08;14.70;;;;;;;0.41;87.11;102011.56;5073010;28;20045;-54
2022/03/04 03:26:58;;;;;;;29.20;14.00;;;;;;;0.36;87.64;102007.28;5072633;28;20048;-59
2022/03/04 03:29:26;;;;;;;29.73;15.02;;;;;;;0.38;87.94;102014.13;5071818;28;20135;-59
2022/03/04 03:31:55;;;;;;;29.55;14.13;;;;;;;0.34;88.31;102020.19;5072959;28;20044;-59
2022/03/04 03:34:24;;;;;;;25.65;13.38;;;;;;;0.35;88.73;102021.94;5073142;28;20048;-59
2022/03/04 03:36:52;;;;;;;30.88;14.00;;;;;;;0.28;89.30;102017.66;5072838;28;20105;-59
2022/03/04 03:39:20;;;;;;;24.35;12.80;;;;;;;0.28;89.64;102020.22;5072685;28;20044;-60
2022/03/04 03:41:48;;;;;;;27.02;13.43;;;;;;;0.28;89.75;102023.66;5072603;28;20115;-59
2022/03/04 03:44:16;;;;;;;26.15;12.90;;;;;;;0.25;89.86;102025.44;5072668;28;20083;-59
2022/03/04 03:46:44;;;;;;;31.00;14.23;;;;;;;0.21;90.04;102019.38;5072332;28;20143;-59
2022/03/04 03:49:14;;;;;;;29.88;13.40;;;;;;;0.17;90.25;102025.44;5072378;28;20045;-59
2022/03/04 03:51:42;;;;;;;28.58;14.05;;;;;;;0.14;90.35;102026.31;5072185;28;20052;-59
2022/03/04 03:54:10;;;;;;;27.90;12.65;;;;;;;0.07;91.02;102024.59;5071711;28;20106;-59
2022/03/04 03:56:38;;;;;;;30.30;13.90;;;;;;;0.11;90.91;102023.75;5072809;28;20051;-59
2022/03/04 03:59:07;;;;;;;27.98;13.68;;;;;;;0.12;90.91;102019.41;5072545;28;20124;-59
2022/03/04 04:01:36;;;;;;;27.13;13.30;;;;;;;0.03;91.25;102022.91;5072419;28;20063;-59
2022/03/04 04:04:05;;;;;;;25.45;12.27;;;;;;;0.01;91.31;102024.59;5072347;28;20044;-59
2022/03/04 04:06:34;;;;;;;30.80;14.80;;;;;;;0.01;91.45;102024.59;5072162;28;20044;-59
2022/03/04 04:09:03;;;;;;;28.45;13.82;;;;;;;-0.07;91.76;102024.66;5071424;28;20179;-59
2022/03/04 04:11:32;;;;;;;27.95;13.85;;;;;;;-0.09;92.38;102028.09;5072308;28;20056;-59
2022/03/04 04:14:00;;;;;;;30.25;14.25;;;;;;;-0.06;92.62;102031.53;5072323;28;20051;-59
2022/03/04 04:16:28;;;;;;;29.63;14.45;;;;;;;-0.05;92.62;102040.16;5072338;28;20090;-59
2022/03/04 04:18:57;;;;;;;28.83;13.88;;;;;;;-0.06;92.99;102036.69;5072175;28;20072;-59
2022/03/04 04:21:25;;;;;;;28.75;13.18;;;;;;;-0.09;93.02;102041.03;5072230;28;20063;-58
2022/03/04 04:23:55;;;;;;;26.92;13.77;;;;;;;-0.07;93.85;102041.88;5071701;28;20051;-59
2022/03/04 04:26:25;;;;;;;26.70;13.30;;;;;;;-0.11;93.63;102042.75;5071920;28;20462;-59
2022/03/04 04:28:54;;;;;;;28.70;13.18;;;;;;;-0.08;93.79;102033.25;5072102;28;20075;-59
2022/03/04 04:31:22;;;;;;;25.25;12.77;;;;;;;-0.11;93.83;102038.44;5072166;28;20059;-59
2022/03/04 04:33:51;;;;;;;26.35;13.57;;;;;;;-0.13;93.84;102039.31;5072712;28;20557;-58
2022/03/04 04:36:19;;;;;;;26.85;12.35;;;;;;;-0.12;93.78;102035.84;5072112;28;20033;-58
2022/03/04 04:38:47;;;;;;;25.13;12.07;;;;;;;-0.20;94.26;102039.31;5072234;28;20048;-58
2022/03/04 04:41:17;;;;;;;25.65;11.70;;;;;;;-0.14;93.97;102038.44;5071970;28;20051;-58
2022/03/04 04:43:45;;;;;;;23.92;11.63;;;;;;;-0.19;94.13;102042.78;5071940;28;20049;-59
2022/03/04 04:46:14;;;;;;;25.48;12.07;;;;;;;-0.22;94.86;102037.56;5071881;28;20041;-58
2022/03/04 04:48:42;;;;;;;26.65;11.65;;;;;;;-0.24;95.28;102041.91;5071978;28;20052;-58
2022/03/04 04:51:10;;;;;;;24.70;11.50;;;;;;;-0.27;95.27;102036.72;5071938;28;20051;-59
2022/03/04 04:53:39;;;;;;;24.83;11.45;;;;;;;-0.28;95.43;102046.22;5072085;28;20048;-59
2022/03/04 04:56:07;;;;;;;24.65;12.18;;;;;;;-0.36;96.33;102042.75;5072081;28;20449;-58
2022/03/04 04:58:37;;;;;;;24.38;12.25;;;;;;;-0.40;96.60;102046.22;5071746;28;20044;-58
2022/03/04 05:01:05;;;;;;;26.13;11.93;;;;;;;-0.30;96.36;102041.91;5071557;28;20056;-58
2022/03/04 05:03:34;;;;;;;27.00;12.75;;;;;;;-0.35;96.71;102044.50;5071922;28;20511;-58
2022/03/04 05:06:02;;;;;;;25.35;12.23;;;;;;;-0.36;96.96;102045.34;5074273;28;20157;-59
2022/03/04 05:08:30;;;;;;;26.08;13.07;;;;;;;-0.32;96.60;102043.63;5075351;28;20045;-60
2022/03/04 05:11:00;;;;;;;25.77;13.10;;;;;;;-0.36;97.03;102038.44;5075496;28;20140;-59
2022/03/04 05:13:29;;;;;;;24.45;12.50;;;;;;;-0.34;97.25;102046.22;5075878;28;20507;-59
2022/03/04 05:15:58;;;;;;;24.90;12.48;;;;;;;-0.36;97.27;102045.34;5075228;28;20142;-58
2022/03/04 05:18:26;;;;;;;23.48;11.63;;;;;;;-0.37;97.55;102046.22;5075440;28;20442;-59
2022/03/04 05:20:55;;;;;;;23.98;12.30;;;;;;;-0.35;97.71;102049.66;5075213;28;20051;-59
2022/03/04 05:26:08;;;;;;;27.60;12.98;;;;;;;-0.45;97.81;102041.06;5075149;28;20064;-59
2022/03/04 05:28:36;;;;;;;26.42;12.32;;;;;;;-0.52;98.33;102044.47;5075293;28;20372;-59
2022/03/04 05:31:05;;;;;;;29.42;14.38;;;;;;;-0.47;98.15;102047.09;5075449;28;20053;-59
2022/03/04 05:33:34;;;;;;;28.75;13.68;;;;;;;-0.57;98.64;102052.25;5075587;28;20167;-58
2022/03/04 05:36:02;;;;;;;25.13;13.50;;;;;;;-0.54;98.68;102056.56;5075058;28;20051;-59
2022/03/04 05:38:30;;;;;;;29.63;13.95;;;;;;;-0.57;99.11;102054.84;5075093;28;20072;-58
2022/03/04 05:40:59;;;;;;;28.10;13.25;;;;;;;-0.52;98.79;102057.41;5074463;28;20047;-58
2022/03/04 05:43:27;;;;;;;28.52;13.30;;;;;;;-0.64;99.07;102058.28;5075197;28;20498;-58
2022/03/04 05:45:55;;;;;;;27.35;13.75;;;;;;;-0.66;99.02;102056.56;5075062;28;20044;-58
2022/03/04 05:48:29;;;;;;;26.80;13.50;;;;;;;-0.69;99.29;102058.25;5074830;28;20123;-58
2022/03/04 05:50:58;;;;;;;26.75;13.80;;;;;;;-0.74;99.50;102062.56;5074840;28;20041;-59
2022/03/04 05:53:26;;;;;;;30.65;14.68;;;;;;;-0.73;99.49;102069.44;5074863;28;20040;-58
2022/03/04 05:55:54;;;;;;;29.10;13.75;;;;;;;-0.79;99.72;102068.56;5074940;28;20491;-59
2022/03/04 05:58:22;;;;;;;31.13;15.07;;;;;;;-0.81;100.00;102072.91;5074863;28;20051;-58
2022/03/04 06:00:50;;;;;;;32.97;14.43;;;;;;;-0.87;100.00;102076.34;5074218;28;20503;-50
2022/03/04 06:03:19;;;;;;;31.13;13.95;;;;;;;-0.88;100.00;102074.59;5074759;28;20471;-58
2022/03/04 06:05:48;;;;;;;27.20;13.50;;;;;;;-0.83;100.00;102072.00;5074660;28;20044;-58
2022/03/04 06:08:17;;;;;;;28.33;13.70;;;;;;;-0.81;100.00;102083.22;5074585;28;20091;-52
2022/03/04 06:10:46;;;;;;;27.33;12.50;;;;;;;-0.82;100.00;102089.25;5074716;28;20485;-51
2022/03/04 06:13:14;;;;;;;27.52;13.70;;;;;;;-0.87;100.00;102086.66;5074593;28;20580;-53
2022/03/04 06:15:42;;;;;;;29.98;14.35;;;;;;;-0.86;100.00;102094.41;5074358;28;20051;-53
2022/03/04 06:18:10;;;;;;;25.63;13.57;;;;;;;-0.88;100.00;102096.13;5074446;28;20049;-58
2022/03/04 06:20:39;;;;;;;30.00;14.27;;;;;;;-0.91;100.00;102092.69;5074614;28;20045;-59
2022/03/04 06:23:09;;;;;;;28.10;12.80;;;;;;;-0.96;100.00;102089.22;5074371;28;20059;-59
2022/03/04 06:25:37;;;;;;;27.95;13.10;;;;;;;-1.06;100.00;102089.19;5074363;28;20046;-59
2022/03/04 06:28:06;;;;;;;28.05;13.80;;;;;;;-1.11;100.00;102096.03;5074223;28;20083;-55
2022/03/04 06:30:37;;;;;;;27.73;12.85;;;;;;;-1.13;100.00;102090.03;5074242;28;20053;-59
2022/03/04 06:35:53;;;;;;;29.88;13.48;;;;;;;-1.11;100.00;102092.63;5073982;28;20367;-58
2022/03/04 06:38:23;;;;;;;28.45;13.52;;;;;;;-1.09;100.00;102096.03;5074345;28;20475;-58
2022/03/04 06:40:52;;;;;;;30.90;14.35;;;;;;;-1.16;100.00;102104.63;5073844;28;20052;-53
2022/03/04 06:43:20;;;;;;;29.65;14.77;;;;;;;-1.13;100.00;102097.78;5073914;28;20479;-54
2022/03/04 06:45:48;;;;;;;31.30;14.40;;;;;;;-1.17;100.00;102106.38;5073868;28;20056;-52
2022/03/04 06:48:20;;;;;;;29.70;13.77;;;;;;;-1.24;100.00;102118.38;5073803;28;20510;-54
2022/03/04 06:50:48;;;;;;;29.10;14.60;;;;;;;-1.14;100.00;102110.69;5073670;28;20395;-50
2022/03/04 06:53:17;;;;;;;30.27;14.48;;;;;;;-1.12;100.00;102112.38;5073381;28;20052;-53
2022/03/04 06:55:47;;;;;;;30.83;14.93;;;;;;;-1.08;100.00;102111.56;5073681;28;20054;-52
2022/03/04 06:58:16;;;;;;;30.00;14.38;;;;;;;-1.07;100.00;102107.25;5073678;28;20495;-51
2022/03/04 07:00:45;;;;;;;29.90;13.15;;;;;;;-1.09;100.00;102116.72;5073361;28;20052;-53
2022/03/04 07:03:14;;;;;;;34.30;14.75;;;;;;;-1.01;100.00;102117.59;5073413;28;20056;-55
2022/03/04 07:05:43;;;;;;;30.63;15.00;;;;;;;-0.96;100.00;102112.47;5073119;28;20048;-54
2022/03/04 07:08:11;;;;;;;35.30;15.63;;;;;;;-1.08;100.00;102121.03;5072730;28;20056;-50
2022/03/04 07:10:40;;;;;;;31.05;13.68;;;;;;;-1.05;100.00;102121.03;5073051;28;20371;-52
2022/03/04 07:13:10;;;;;;;31.27;14.15;;;;;;;-1.05;100.00;102124.50;5073347;28;20048;-59
2022/03/04 07:15:39;;;;;;;28.02;13.13;;;;;;;-0.96;100.00;102123.66;5073851;28;20099;-59
2022/03/04 07:18:08;;;;;;;28.13;13.65;;;;;;;-1.01;100.00;102127.94;5073162;28;20075;-59
2022/03/04 07:20:36;;;;;;;27.13;13.23;;;;;;;-0.88;100.00;102119.38;5073116;28;20063;-58
2022/03/04 07:23:05;;;;;;;27.25;12.55;;;;;;;-0.76;100.00;102125.44;5073164;28;20094;-59
2022/03/04 07:25:34;;;;;;;32.13;13.88;;;;;;;-0.78;100.00;102127.16;5073069;28;20454;-59
2022/03/04 07:28:02;;;;;;;30.33;13.20;;;;;;;-0.59;100.00;102133.22;5072383;28;20040;-52
2022/03/04 07:30:31;;;;;;;26.38;12.90;;;;;;;-0.52;100.00;102124.59;5072832;28;20045;-50
2022/03/04 07:33:00;;;;;;;31.20;13.20;;;;;;;-0.53;100.00;102128.94;5072468;28;20045;-55
2022/03/04 07:35:28;;;;;;;30.02;14.63;;;;;;;-0.21;100.00;102132.41;5072788;28;20053;-53
2022/03/04 07:37:56;;;;;;;25.23;11.48;;;;;;;-0.17;100.00;102139.31;5072711;28;20441;-53
2022/03/04 07:40:24;;;;;;;26.58;13.20;;;;;;;-0.04;99.34;102145.31;5072942;28;20040;-54
2022/03/04 07:42:53;;;;;;;28.45;13.52;;;;;;;0.02;98.78;102139.31;5072674;28;20044;-54
2022/03/04 07:45:21;;;;;;;28.33;13.80;;;;;;;0.19;98.72;102149.63;5072779;28;20487;-54
2022/03/04 07:47:50;;;;;;;29.83;13.63;;;;;;;0.39;97.46;102141.84;5072656;28;20051;-59
2022/03/04 07:50:18;;;;;;;27.88;14.20;;;;;;;0.41;97.56;102147.88;5072838;28;20068;-59
2022/03/04 07:52:49;;;;;;;26.50;12.88;;;;;;;0.40;96.70;102156.53;5071373;28;20064;-60
2022/03/04 07:55:18;;;;;;;26.02;13.10;;;;;;;0.61;96.49;102158.19;5072520;28;20048;-59
2022/03/04 07:57:46;;;;;;;29.45;13.38;;;;;;;1.12;94.74;102161.47;5072295;28;20044;-59
2022/03/04 08:00:17;;;;;;;28.65;13.45;;;;;;;1.28;92.81;102154.47;5072380;28;20534;-59
2022/03/04 08:02:45;;;;;;;31.15;13.43;;;;;;;1.42;92.04;102149.22;5072558;28;20056;-59
2022/03/04 08:05:15;;;;;;;29.35;13.65;;;;;;;1.54;90.45;102157.78;5072926;28;20048;-59
2022/03/04 08:07:43;;;;;;;26.15;12.45;;;;;;;1.74;91.90;102157.66;5072589;28;20051;-59
2022/03/04 08:10:12;;;;;;;28.60;13.40;;;;;;;1.64;90.44;102159.44;5072556;28;20052;-59
2022/03/04 08:12:40;;;;;;;29.33;12.57;;;;;;;1.89;89.68;102156.69;5072736;28;20483;-58
2022/03/04 08:15:10;;;;;;;26.77;12.60;;;;;;;1.92;89.09;102156.63;5072442;28;20075;-59
2022/03/04 08:17:40;;;;;;;25.88;12.77;;;;;;;1.92;88.26;102164.44;5072609;28;20052;-59
2022/03/04 08:20:09;;;;;;;26.88;14.35;;;;;;;2.47;86.02;102158.75;5071176;28;20049;-59
2022/03/04 08:22:39;;;;;;;27.90;12.77;;;;;;;2.45;85.99;102165.66;5072540;28;20051;-58
2022/03/04 08:25:08;;;;;;;26.48;14.45;;;;;;;2.58;86.17;102169.03;5072358;28;20059;-59
2022/03/04 08:27:40;;;;;;;27.80;13.23;;;;;;;2.94;83.96;102177.25;5071003;28;20106;-59
2022/03/04 08:30:10;;;;;;;25.95;12.63;;;;;;;3.15;83.23;102172.69;5070930;28;20057;-61
2022/03/04 08:32:39;;;;;;;27.25;12.95;;;;;;;3.17;82.06;102178.72;5072388;28;20127;-59
2022/03/04 08:35:08;;;;;;;26.80;13.38;;;;;;;3.60;82.48;102177.28;5072055;28;20041;-59
2022/03/04 08:37:38;;;;;;;31.63;14.85;;;;;;;3.73;80.59;102179.66;5072004;28;20063;-59
2022/03/04 08:40:08;;;;;;;27.50;13.93;;;;;;;3.47;80.98;102174.84;5075301;28;20499;-59
2022/03/04 08:42:37;;;;;;;26.73;13.02;;;;;;;3.76;79.74;102178.75;5076393;28;20048;-59
2022/03/04 08:45:07;;;;;;;26.75;12.57;;;;;;;3.69;79.77;102171.94;5076391;28;20048;-59
2022/03/04 08:47:35;;;;;;;27.33;13.60;;;;;;;4.17;78.53;102166.84;5076423;28;20572;-60
2022/03/04 08:50:04;;;;;;;26.63;14.00;;;;;;;4.00;77.21;102172.31;5076090;28;20037;-61
2022/03/04 08:52:33;;;;;;;27.45;13.55;;;;;;;4.08;76.71;102177.41;5076229;28;20087;-61
2022/03/04 08:55:03;;;;;;;27.73;12.85;;;;;;;4.38;76.29;102169.94;5076363;28;20491;-60
2022/03/04 08:57:32;;;;;;;28.02;13.32;;;;;;;4.39;76.18;102177.72;5076120;28;20557;-61
2022/03/04 09:00:02;;;;;;;29.40;13.45;;;;;;;4.64;75.80;102176.44;5075742;28;20044;-60
2022/03/04 09:02:30;;;;;;;27.33;13.30;;;;;;;4.30;76.75;102180.50;5075797;28;20051;-60
2022/03/04 09:04:59;;;;;;;30.30;13.82;;;;;;;4.48;75.54;102184.50;5076057;28;20127;-60
2022/03/04 09:07:27;;;;;;;27.02;13.73;;;;;;;4.70;73.87;102171.97;5076156;28;20060;-61
2022/03/04 09:09:55;;;;;;;30.67;14.43;;;;;;;4.80;73.93;102180.44;5075888;28;20487;-60
2022/03/04 09:12:24;;;;;;;30.73;14.43;;;;;;;5.03;72.80;102179.13;5075280;28;20508;-59
2022/03/04 09:14:53;;;;;;;27.92;13.82;;;;;;;5.01;72.03;102180.91;5075351;28;20162;-61
2022/03/04 09:17:21;;;;;;;26.60;12.95;;;;;;;5.15;71.59;102178.00;5075480;28;20052;-61
2022/03/04 09:19:49;;;;;;;25.35;13.13;;;;;;;5.15;72.27;102185.84;5075656;28;20040;-60
2022/03/04 09:22:25;;;;;;;31.88;14.07;;;;;;;5.09;71.64;102179.00;5075601;28;20050;-60
2022/03/04 09:24:53;;;;;;;27.70;13.70;;;;;;;5.15;71.90;102186.69;5075482;28;20114;-62
2022/03/04 09:27:21;;;;;;;26.70;14.05;;;;;;;5.38;71.13;102182.72;5075744;28;20048;-60
2022/03/04 09:29:51;;;;;;;26.90;13.63;;;;;;;5.73;69.87;102181.94;5075353;28;20382;-60
2022/03/04 09:32:19;;;;;;;27.67;13.43;;;;;;;5.54;69.63;102188.47;5075224;28;20059;-61
2022/03/04 09:34:47;;;;;;;24.70;13.00;;;;;;;5.83;70.25;102179.09;5075160;28;20053;-60
2022/03/04 09:37:15;;;;;;;27.35;13.63;;;;;;;6.03;68.27;102171.66;5075422;28;20056;-61
2022/03/04 09:39:44;;;;;;;24.08;13.02;;;;;;;6.40;67.08;102172.50;5075339;28;20111;-59
2022/03/04 09:42:12;;;;;;;26.10;13.50;;;;;;;6.63;66.02;102173.63;5075408;28;20495;-62
2022/03/04 09:44:41;;;;;;;25.33;13.82;;;;;;;6.85;65.68;102174.75;5075208;28;20055;-61
2022/03/04 09:47:11;;;;;;;24.83;12.95;;;;;;;6.55;66.62;102166.84;5075345;28;20048;-60
2022/03/04 09:49:39;;;;;;;28.70;13.95;;;;;;;6.66;64.91;102170.94;5075111;28;20456;-60
2022/03/04 09:52:08;;;;;;;27.85;13.73;;;;;;;6.78;65.63;102167.97;5074182;28;20048;-60
2022/03/04 09:54:37;;;;;;;22.92;12.65;;;;;;;7.12;64.91;102172.25;5074826;28;20059;-61
2022/03/04 09:57:05;;;;;;;23.23;12.50;;;;;;;7.33;62.73;102156.78;5074815;28;20181;-60
2022/03/04 09:59:33;;;;;;;23.90;12.80;;;;;;;7.47;62.46;102156.38;5074815;28;20534;-60
2022/03/04 10:02:01;;;;;;;23.52;12.90;;;;;;;7.48;62.00;102161.53;5074369;28;20457;-61
2022/03/04 10:04:32;;;;;;;24.38;13.73;;;;;;;7.65;61.24;102158.41;5074434;28;20609;-60
2022/03/04 10:07:10;;;;;;;24.40;13.18;;;;;;;7.78;62.17;102164.09;5074819;28;20048;-61
2022/03/04 10:09:42;;;;;;;25.80;12.80;;;;;;;8.18;61.12;102160.16;5074605;28;20036;-61
2022/03/04 10:12:11;;;;;;;23.52;12.45;;;;;;;8.66;59.50;102155.03;5074616;28;20106;-60
2022/03/04 10:14:58;;;;;;;24.95;14.40;;;;;;;8.75;58.05;102158.19;5074559;28;20103;-61
2022/03/04 10:17:32;;;;;;;25.23;12.93;;;;;;;8.85;57.60;102156.09;5074538;28;20044;-61
2022/03/04 10:20:04;;;;;;;24.77;12.43;;;;;;;8.79;57.85;102153.69;5074372;28;20197;-61
2022/03/04 10:22:37;;;;;;;24.60;12.68;;;;;;;8.95;56.33;102157.44;5074622;28;20048;-61
2022/03/04 10:25:20;;;;;;;25.63;13.80;;;;;;;9.24;56.13;102149.38;5074357;28;20045;-60
2022/03/04 10:27:49;;;;;;;23.95;13.18;;;;;;;9.31;55.68;102145.59;5074234;28;20128;-61
2022/03/04 10:30:29;;;;;;;25.00;12.25;;;;;;;9.46;54.87;102146.75;5073970;28;20041;-61
2022/03/04 10:33:06;;;;;;;27.00;13.00;;;;;;;9.76;54.30;102146.44;5074254;28;20049;-61
2022/03/04 10:35:36;;;;;;;26.83;12.50;;;;;;;9.73;54.14;102134.28;5073990;28;20045;-61
2022/03/04 10:38:04;;;;;;;25.15;14.07;;;;;;;9.72;54.19;102140.47;5073949;28;20499;-61
2022/03/04 10:40:35;;;;;;;25.90;14.10;;;;;;;9.81;54.17;102134.81;5074073;28;20053;-62
2022/03/04 10:43:05;;;;;;;26.23;13.52;;;;;;;10.17;53.03;102140.38;5074059;28;20487;-61
2022/03/04 10:45:35;;;;;;;24.45;13.45;;;;;;;10.39;53.34;102133.31;5074080;28;20064;-54
2022/03/04 10:48:05;;;;;;;24.13;13.27;;;;;;;10.50;52.76;102140.72;5073947;28;20465;-55
2022/03/04 10:50:36;;;;;;;23.67;12.32;;;;;;;10.72;50.98;102143.25;5073803;28;20511;-61
2022/03/04 10:53:07;;;;;;;24.38;13.75;;;;;;;10.92;50.36;102150.25;5106465;28;20040;-61
2022/03/04 10:55:40;;;;;;;27.70;14.18;;;;;;;11.29;49.28;102139.78;5073821;28;20036;-61
2022/03/04 10:58:14;;;;;;;23.58;13.48;;;;;;;11.31;48.65;102138.75;5073761;28;20048;-61
2022/03/04 11:00:44;;;;;;;25.50;14.18;;;;;;;11.44;48.37;102127.66;5073578;28;20056;-61
2022/03/04 11:03:17;;;;;;;22.73;13.35;;;;;;;11.74;46.06;102119.16;5072688;28;20086;-61
2022/03/04 11:05:48;;;;;;;22.50;13.32;;;;;;;11.74;45.33;102124.41;5073309;28;20097;-55
2022/03/04 11:08:17;;;;;;;25.65;13.02;;;;;;;12.14;44.81;102119.81;5073596;28;20055;-52
2022/03/04 11:10:45;;;;;;;22.65;13.80;;;;;;;12.45;44.47;102116.44;5073480;28;20445;-53
2022/03/04 11:13:14;;;;;;;23.63;14.07;;;;;;;12.71;44.39;102123.88;5073587;28;20450;-55
2022/03/04 11:15:43;;;;;;;26.23;15.27;;;;;;;12.45;44.15;102128.78;5073200;28;20136;-55
2022/03/04 11:18:16;;;;;;;23.15;14.30;;;;;;;12.81;43.30;102125.09;5073280;28;20398;-53
2022/03/04 11:20:48;;;;;;;26.90;15.18;;;;;;;12.94;43.98;102112.94;5073220;28;20044;-54
2022/03/04 11:23:19;;;;;;;24.83;14.75;;;;;;;13.37;41.87;102114.13;5072036;28;20138;-54
2022/03/04 11:25:54;;;;;;;22.38;14.07;;;;;;;13.35;40.67;102115.06;5073251;28;20419;-53